sensor_id;sensor_type;location;lat;lon;timestamp;pressure;altitude;pressure_sealevel;temperature;humidity
12868;BME280;33517;49.866;8.320;2023-01-15T00:01:57;98974.44;;;10.90;100.00
12868;BME280;33517;49.866;8.320;2023-01-15T00:04:49;98976.06;;;10.97;100.00
12868;BME280;33517;49.866;8.320;2023-01-15T00:07:41;98989.03;;;11.05;100.00
12868;BME280;33517;49.866;8.320;2023-01-15T00:10:34;98969.81;;;10.98;100.00
12868;BME280;33517;49.866;8.320;2023-01-15T00:13:26;98964.31;;;10.93;100.00
12868;BME280;33517;49.866;8.320;2023-01-15T00:16:21;98956.63;;;11.05;100.00
12868;BME280;33517;49.866;8.320;2023-01-15T00:19:14;98952.38;;;11.17;100.00
12868;BME280;33517;49.866;8.320;2023-01-15T00:22:05;98942.44;;;11.19;100.00
12868;BME280;33517;49.866;8.320;2023-01-15T00:24:57;98934.72;;;11.24;100.00
12868;BME280;33517;49.866;8.320;2023-01-15T00:28:07;98930.03;;;11.39;100.00
12868;BME280;33517;49.866;8.320;2023-01-15T00:30:58;98931.03;;;11.51;99.48
12868;BME280;33517;49.866;8.320;2023-01-15T00:33:52;98924.50;;;11.60;97.87
12868;BME280;33517;49.866;8.320;2023-01-15T00:36:44;98922.09;;;11.65;96.63
12868;BME280;33517;49.866;8.320;2023-01-15T00:39:36;98924.09;;;11.70;96.92
12868;BME280;33517;49.866;8.320;2023-01-15T00:42:27;98932.41;;;11.73;96.62
12868;BME280;33517;49.866;8.320;2023-01-15T00:45:19;98932.22;;;11.75;96.79
12868;BME280;33517;49.866;8.320;2023-01-15T00:48:11;98943.94;;;11.79;96.20
12868;BME280;33517;49.866;8.320;2023-01-15T00:51:05;98938.03;;;11.83;96.10
12868;BME280;33517;49.866;8.320;2023-01-15T00:53:57;98933.81;;;11.82;95.90
12868;BME280;33517;49.866;8.320;2023-01-15T00:56:49;98934.66;;;11.57;97.61
12868;BME280;33517;49.866;8.320;2023-01-15T00:59:40;98942.84;;;11.16;100.00
12868;BME280;33517;49.866;8.320;2023-01-15T01:02:32;98946.13;;;10.98;100.00
12868;BME280;33517;49.866;8.320;2023-01-15T01:05:24;98950.75;;;10.90;100.00
12868;BME280;33517;49.866;8.320;2023-01-15T01:08:17;98955.41;;;10.81;100.00
12868;BME280;33517;49.866;8.320;2023-01-15T01:11:10;98949.34;;;10.81;100.00
12868;BME280;33517;49.866;8.320;2023-01-15T01:14:03;98952.16;;;10.79;100.00
12868;BME280;33517;49.866;8.320;2023-01-15T01:16:55;98952.78;;;10.81;100.00
12868;BME280;33517;49.866;8.320;2023-01-15T01:19:47;98944.69;;;10.83;100.00
12868;BME280;33517;49.866;8.320;2023-01-15T01:22:40;98947.94;;;10.85;100.00
12868;BME280;33517;49.866;8.320;2023-01-15T01:25:33;98944.91;;;10.75;100.00
12868;BME280;33517;49.866;8.320;2023-01-15T01:28:25;98948.31;;;10.69;100.00
12868;BME280;33517;49.866;8.320;2023-01-15T01:31:17;98944.25;;;10.66;100.00
12868;BME280;33517;49.866;8.320;2023-01-15T01:34:10;98948.75;;;10.66;100.00
12868;BME280;33517;49.866;8.320;2023-01-15T01:37:02;98950.13;;;10.68;100.00
12868;BME280;33517;49.866;8.320;2023-01-15T01:39:54;98956.22;;;10.69;100.00
12868;BME280;33517;49.866;8.320;2023-01-15T01:42:47;98959.25;;;10.66;100.00
12868;BME280;33517;49.866;8.320;2023-01-15T01:45:39;98960.06;;;10.60;100.00
12868;BME280;33517;49.866;8.320;2023-01-15T01:48:32;98966.34;;;10.65;100.00
12868;BME280;33517;49.866;8.320;2023-01-15T01:51:27;98970.78;;;10.58;100.00
12868;BME280;33517;49.866;8.320;2023-01-15T01:54:20;98970.34;;;10.55;100.00
12868;BME280;33517;49.866;8.320;2023-01-15T01:57:14;98989.16;;;10.52;100.00
12868;BME280;33517;49.866;8.320;2023-01-15T02:00:10;98991.38;;;10.42;100.00
12868;BME280;33517;49.866;8.320;2023-01-15T02:03:04;98986.50;;;10.26;100.00
12868;BME280;33517;49.866;8.320;2023-01-15T02:05:58;98996.97;;;10.19;100.00
12868;BME280;33517;49.866;8.320;2023-01-15T02:08:51;98995.53;;;10.16;100.00
12868;BME280;33517;49.866;8.320;2023-01-15T02:11:43;98989.25;;;10.11;100.00
12868;BME280;33517;49.866;8.320;2023-01-15T02:14:38;98972.22;;;10.07;100.00
12868;BME280;33517;49.866;8.320;2023-01-15T02:17:37;98980.09;;;10.07;100.00
12868;BME280;33517;49.866;8.320;2023-01-15T02:20:36;98995.25;;;10.05;100.00
12868;BME280;33517;49.866;8.320;2023-01-15T02:23:49;98999.06;;;9.96;100.00
12868;BME280;33517;49.866;8.320;2023-01-15T02:26:57;99003.69;;;9.94;100.00
12868;BME280;33517;49.866;8.320;2023-01-15T02:29:55;99013.56;;;9.85;100.00
12868;BME280;33517;49.866;8.320;2023-01-15T02:32:51;99017.19;;;9.84;100.00
12868;BME280;33517;49.866;8.320;2023-01-15T02:35:47;99015.53;;;9.77;100.00
12868;BME280;33517;49.866;8.320;2023-01-15T02:38:44;99022.94;;;9.67;100.00
12868;BME280;33517;49.866;8.320;2023-01-15T02:41:41;99024.78;;;9.66;100.00
12868;BME280;33517;49.866;8.320;2023-01-15T02:44:39;99025.97;;;9.64;100.00
12868;BME280;33517;49.866;8.320;2023-01-15T02:47:33;99025.91;;;9.51;100.00
12868;BME280;33517;49.866;8.320;2023-01-15T02:50:29;99024.66;;;9.47;100.00
12868;BME280;33517;49.866;8.320;2023-01-15T02:53:25;99028.44;;;9.38;100.00
12868;BME280;33517;49.866;8.320;2023-01-15T02:56:22;99039.50;;;9.33;100.00
12868;BME280;33517;49.866;8.320;2023-01-15T02:59:20;99039.50;;;9.33;100.00
12868;BME280;33517;49.866;8.320;2023-01-15T03:02:17;99042.69;;;9.28;100.00
12868;BME280;33517;49.866;8.320;2023-01-15T03:05:15;99048.19;;;9.34;100.00
12868;BME280;33517;49.866;8.320;2023-01-15T03:08:10;99044.03;;;9.18;100.00
12868;BME280;33517;49.866;8.320;2023-01-15T03:11:04;99048.25;;;9.19;100.00
12868;BME280;33517;49.866;8.320;2023-01-15T03:14:02;99036.66;;;9.07;100.00
12868;BME280;33517;49.866;8.320;2023-01-15T03:16:58;99035.97;;;8.98;100.00
12868;BME280;33517;49.866;8.320;2023-01-15T03:19:57;99039.03;;;9.02;100.00
12868;BME280;33517;49.866;8.320;2023-01-15T03:22:52;99036.38;;;8.95;100.00
12868;BME280;33517;49.866;8.320;2023-01-15T03:25:49;99046.47;;;8.98;100.00
12868;BME280;33517;49.866;8.320;2023-01-15T03:28:42;99043.53;;;8.87;100.00
12868;BME280;33517;49.866;8.320;2023-01-15T03:31:35;99033.22;;;8.85;100.00
12868;BME280;33517;49.866;8.320;2023-01-15T03:34:33;99045.72;;;8.83;100.00
12868;BME280;33517;49.866;8.320;2023-01-15T03:37:28;99058.66;;;8.85;100.00
12868;BME280;33517;49.866;8.320;2023-01-15T03:40:21;99063.34;;;8.89;100.00
12868;BME280;33517;49.866;8.320;2023-01-15T03:43:14;99067.38;;;8.92;100.00
12868;BME280;33517;49.866;8.320;2023-01-15T03:46:38;99077.88;;;8.92;100.00
12868;BME280;33517;49.866;8.320;2023-01-15T03:49:39;99082.31;;;8.91;100.00
12868;BME280;33517;49.866;8.320;2023-01-15T03:52:41;99081.44;;;8.84;100.00
12868;BME280;33517;49.866;8.320;2023-01-15T03:55:38;99069.97;;;8.85;100.00
12868;BME280;33517;49.866;8.320;2023-01-15T03:58:37;99081.81;;;8.81;100.00
12868;BME280;33517;49.866;8.320;2023-01-15T04:01:35;99080.94;;;8.74;100.00
12868;BME280;33517;49.866;8.320;2023-01-15T04:04:28;99086.00;;;8.76;100.00
12868;BME280;33517;49.866;8.320;2023-01-15T04:07:21;99089.59;;;8.75;100.00
12868;BME280;33517;49.866;8.320;2023-01-15T04:10:15;99099.66;;;8.71;100.00
12868;BME280;33517;49.866;8.320;2023-01-15T04:13:07;99106.25;;;8.67;100.00
12868;BME280;33517;49.866;8.320;2023-01-15T04:16:00;99111.81;;;8.58;100.00
12868;BME280;33517;49.866;8.320;2023-01-15T04:18:52;99110.28;;;8.49;100.00
12868;BME280;33517;49.866;8.320;2023-01-15T04:21:44;99118.72;;;8.29;100.00
12868;BME280;33517;49.866;8.320;2023-01-15T04:24:36;99116.91;;;8.30;100.00
12868;BME280;33517;49.866;8.320;2023-01-15T04:27:30;99119.53;;;8.30;100.00
12868;BME280;33517;49.866;8.320;2023-01-15T04:30:22;99134.00;;;8.26;100.00
12868;BME280;33517;49.866;8.320;2023-01-15T04:33:14;99131.81;;;8.29;100.00
12868;BME280;33517;49.866;8.320;2023-01-15T04:36:06;99121.78;;;8.33;100.00
12868;BME280;33517;49.866;8.320;2023-01-15T04:38:59;99119.59;;;8.22;100.00
12868;BME280;33517;49.866;8.320;2023-01-15T04:41:51;99120.25;;;8.09;100.00
12868;BME280;33517;49.866;8.320;2023-01-15T04:45:02;99128.38;;;8.00;100.00
12868;BME280;33517;49.866;8.320;2023-01-15T04:47:54;99145.50;;;8.02;100.00
12868;BME280;33517;49.866;8.320;2023-01-15T04:50:46;99154.91;;;7.97;100.00
12868;BME280;33517;49.866;8.320;2023-01-15T04:53:37;99149.59;;;8.05;100.00
12868;BME280;33517;49.866;8.320;2023-01-15T04:56:30;99164.66;;;8.03;100.00
12868;BME280;33517;49.866;8.320;2023-01-15T04:59:23;99150.75;;;8.02;100.00
12868;BME280;33517;49.866;8.320;2023-01-15T05:02:17;99147.50;;;8.00;100.00
12868;BME280;33517;49.866;8.320;2023-01-15T05:05:09;99151.28;;;7.83;99.61
12868;BME280;33517;49.866;8.320;2023-01-15T05:08:01;99156.97;;;7.87;100.00
12868;BME280;33517;49.866;8.320;2023-01-15T05:10:53;99163.53;;;7.83;100.00
12868;BME280;33517;49.866;8.320;2023-01-15T05:13:45;99163.72;;;7.81;100.00
12868;BME280;33517;49.866;8.320;2023-01-15T05:16:36;99165.75;;;7.94;100.00
12868;BME280;33517;49.866;8.320;2023-01-15T05:19:30;99175.53;;;8.00;99.65
12868;BME280;33517;49.866;8.320;2023-01-15T05:22:21;99182.19;;;8.02;99.78
12868;BME280;33517;49.866;8.320;2023-01-15T05:25:13;99185.00;;;8.01;99.53
12868;BME280;33517;49.866;8.320;2023-01-15T05:28:05;99202.34;;;8.02;99.08
12868;BME280;33517;49.866;8.320;2023-01-15T05:30:57;99197.13;;;8.02;98.56
12868;BME280;33517;49.866;8.320;2023-01-15T05:33:50;99200.34;;;8.04;98.88
12868;BME280;33517;49.866;8.320;2023-01-15T05:36:44;99197.81;;;7.96;98.02
12868;BME280;33517;49.866;8.320;2023-01-15T05:39:36;99201.41;;;7.95;98.65
12868;BME280;33517;49.866;8.320;2023-01-15T05:42:28;99217.31;;;7.93;98.01
12868;BME280;33517;49.866;8.320;2023-01-15T05:45:20;99207.28;;;7.82;98.72
12868;BME280;33517;49.866;8.320;2023-01-15T05:48:12;99216.81;;;7.75;99.39
12868;BME280;33517;49.866;8.320;2023-01-15T05:51:04;99218.53;;;7.83;99.61
12868;BME280;33517;49.866;8.320;2023-01-15T05:53:57;99227.06;;;7.62;97.70
12868;BME280;33517;49.866;8.320;2023-01-15T05:56:49;99235.91;;;7.38;99.85
12868;BME280;33517;49.866;8.320;2023-01-15T05:59:41;99226.19;;;7.47;100.00
12868;BME280;33517;49.866;8.320;2023-01-15T06:02:33;99225.25;;;7.63;99.72
12868;BME280;33517;49.866;8.320;2023-01-15T06:05:25;99215.81;;;7.76;99.22
12868;BME280;33517;49.866;8.320;2023-01-15T06:08:16;99201.97;;;7.90;99.84
12868;BME280;33517;49.866;8.320;2023-01-15T06:11:10;99205.75;;;8.02;98.38
12868;BME280;33517;49.866;8.320;2023-01-15T06:14:02;99212.97;;;8.00;98.70
12868;BME280;33517;49.866;8.320;2023-01-15T06:16:54;99220.75;;;7.94;97.61
12868;BME280;33517;49.866;8.320;2023-01-15T06:19:46;99215.22;;;7.89;98.12
12868;BME280;33517;49.866;8.320;2023-01-15T06:22:37;99221.09;;;7.91;97.69
12868;BME280;33517;49.866;8.320;2023-01-15T06:25:31;99231.94;;;7.88;98.31
12868;BME280;33517;49.866;8.320;2023-01-15T06:28:26;99238.16;;;7.87;98.28
12868;BME280;33517;49.866;8.320;2023-01-15T06:31:20;99246.63;;;7.89;98.82
12868;BME280;33517;49.866;8.320;2023-01-15T06:34:12;99239.25;;;7.92;97.75
12868;BME280;33517;49.866;8.320;2023-01-15T06:37:04;99238.63;;;7.90;98.33
12868;BME280;33517;49.866;8.320;2023-01-15T06:39:56;99251.72;;;7.90;98.19
12868;BME280;33517;49.866;8.320;2023-01-15T06:42:48;99256.31;;;7.88;97.47
12868;BME280;33517;49.866;8.320;2023-01-15T06:45:59;99256.66;;;7.85;97.32
12868;BME280;33517;49.866;8.320;2023-01-15T06:49:11;99258.00;;;7.81;98.38
12868;BME280;33517;49.866;8.320;2023-01-15T06:52:03;99266.84;;;7.80;98.57
12868;BME280;33517;49.866;8.320;2023-01-15T06:54:55;99263.94;;;7.75;98.74
12868;BME280;33517;49.866;8.320;2023-01-15T06:57:47;99264.41;;;7.79;98.83
12868;BME280;33517;49.866;8.320;2023-01-15T07:00:39;99253.94;;;7.79;99.24
12868;BME280;33517;49.866;8.320;2023-01-15T07:03:33;99260.34;;;7.76;98.36
12868;BME280;33517;49.866;8.320;2023-01-15T07:06:25;99266.41;;;7.77;98.13
12868;BME280;33517;49.866;8.320;2023-01-15T07:09:17;99274.59;;;7.74;99.32
12868;BME280;33517;49.866;8.320;2023-01-15T07:12:09;99274.81;;;7.64;98.70
12868;BME280;33517;49.866;8.320;2023-01-15T07:15:01;99285.78;;;7.37;99.63
12868;BME280;33517;49.866;8.320;2023-01-15T07:17:53;99290.03;;;7.38;100.00
12868;BME280;33517;49.866;8.320;2023-01-15T07:20:46;99299.69;;;7.37;100.00
12868;BME280;33517;49.866;8.320;2023-01-15T07:23:38;99293.50;;;7.30;99.87
12868;BME280;33517;49.866;8.320;2023-01-15T07:26:30;99305.91;;;7.36;100.00
12868;BME280;33517;49.866;8.320;2023-01-15T07:29:22;99307.34;;;7.39;100.00
12868;BME280;33517;49.866;8.320;2023-01-15T07:32:14;99317.97;;;7.45;100.00
12868;BME280;33517;49.866;8.320;2023-01-15T07:35:06;99313.28;;;7.33;100.00
12868;BME280;33517;49.866;8.320;2023-01-15T07:38:01;99313.28;;;7.33;99.78
12868;BME280;33517;49.866;8.320;2023-01-15T07:40:54;99323.81;;;7.25;100.00
12868;BME280;33517;49.866;8.320;2023-01-15T07:44:00;99319.41;;;7.17;99.54
12868;BME280;33517;49.866;8.320;2023-01-15T07:47:16;99332.34;;;7.11;100.00
12868;BME280;33517;49.866;8.320;2023-01-15T07:50:27;99338.59;;;7.02;99.34
12868;BME280;33517;49.866;8.320;2023-01-15T07:53:20;99339.56;;;7.01;99.91
12868;BME280;33517;49.866;8.320;2023-01-15T07:56:12;99350.81;;;7.17;99.45
12868;BME280;33517;49.866;8.320;2023-01-15T07:59:04;99356.69;;;7.19;99.76
12868;BME280;33517;49.866;8.320;2023-01-15T08:01:55;99355.22;;;7.17;99.44
12868;BME280;33517;49.866;8.320;2023-01-15T08:04:47;99368.28;;;7.25;99.32
12868;BME280;33517;49.866;8.320;2023-01-15T08:07:40;99366.47;;;7.25;98.34
12868;BME280;33517;49.866;8.320;2023-01-15T08:10:34;99372.66;;;7.32;98.75
12868;BME280;33517;49.866;8.320;2023-01-15T08:13:46;99377.25;;;7.30;98.33
12868;BME280;33517;49.866;8.320;2023-01-15T08:16:55;99377.56;;;7.27;98.07
12868;BME280;33517;49.866;8.320;2023-01-15T08:19:47;99374.09;;;7.35;99.13
12868;BME280;33517;49.866;8.320;2023-01-15T08:22:39;99375.78;;;7.28;98.45
12868;BME280;33517;49.866;8.320;2023-01-15T08:25:31;99371.59;;;7.03;98.67
12868;BME280;33517;49.866;8.320;2023-01-15T08:28:24;99376.53;;;6.90;100.00
12868;BME280;33517;49.866;8.320;2023-01-15T08:31:17;99374.03;;;7.04;100.00
12868;BME280;33517;49.866;8.320;2023-01-15T08:34:09;99365.88;;;7.07;100.00
12868;BME280;33517;49.866;8.320;2023-01-15T08:37:01;99378.97;;;6.99;99.71
12868;BME280;33517;49.866;8.320;2023-01-15T08:39:53;99393.50;;;7.10;100.00
12868;BME280;33517;49.866;8.320;2023-01-15T08:42:45;99402.13;;;7.18;100.00
12868;BME280;33517;49.866;8.320;2023-01-15T08:45:38;99395.13;;;7.11;98.91
12868;BME280;33517;49.866;8.320;2023-01-15T08:48:31;99389.75;;;7.04;99.24
12868;BME280;33517;49.866;8.320;2023-01-15T08:51:23;99396.00;;;6.87;99.08
12868;BME280;33517;49.866;8.320;2023-01-15T08:54:15;99394.72;;;6.75;99.25
12868;BME280;33517;49.866;8.320;2023-01-15T08:57:07;99403.06;;;6.71;100.00
12868;BME280;33517;49.866;8.320;2023-01-15T08:59:59;99408.09;;;6.88;100.00
12868;BME280;33517;49.866;8.320;2023-01-15T09:02:52;99415.28;;;7.02;100.00
12868;BME280;33517;49.866;8.320;2023-01-15T09:05:44;99424.91;;;7.02;100.00
12868;BME280;33517;49.866;8.320;2023-01-15T09:08:36;99421.78;;;7.06;100.00
12868;BME280;33517;49.866;8.320;2023-01-15T09:11:28;99408.38;;;7.01;100.00
12868;BME280;33517;49.866;8.320;2023-01-15T09:14:20;99413.59;;;7.17;100.00
12868;BME280;33517;49.866;8.320;2023-01-15T09:17:12;99417.00;;;7.18;100.00
12868;BME280;33517;49.866;8.320;2023-01-15T09:20:07;99419.81;;;7.08;100.00
12868;BME280;33517;49.866;8.320;2023-01-15T09:22:59;99423.53;;;7.22;100.00
12868;BME280;33517;49.866;8.320;2023-01-15T09:25:53;99431.03;;;7.33;99.15
12868;BME280;33517;49.866;8.320;2023-01-15T09:28:45;99426.97;;;7.30;99.29
12868;BME280;33517;49.866;8.320;2023-01-15T09:31:36;99433.03;;;7.23;98.26
12868;BME280;33517;49.866;8.320;2023-01-15T09:34:28;99448.53;;;7.32;98.28
12868;BME280;33517;49.866;8.320;2023-01-15T09:37:21;99457.81;;;7.51;97.61
12868;BME280;33517;49.866;8.320;2023-01-15T09:40:22;99472.03;;;7.57;96.52
12868;BME280;33517;49.866;8.320;2023-01-15T09:43:26;99470.91;;;7.51;96.28
12868;BME280;33517;49.866;8.320;2023-01-15T09:46:24;99475.97;;;7.44;96.09
12868;BME280;33517;49.866;8.320;2023-01-15T09:49:25;99476.31;;;7.41;95.63
12868;BME280;33517;49.866;8.320;2023-01-15T09:52:25;99491.19;;;7.41;94.39
12868;BME280;33517;49.866;8.320;2023-01-15T09:55:24;99494.16;;;7.38;94.80
12868;BME280;33517;49.866;8.320;2023-01-15T09:58:20;99500.22;;;7.38;93.84
12868;BME280;33517;49.866;8.320;2023-01-15T10:01:14;99506.59;;;7.44;92.61
12868;BME280;33517;49.866;8.320;2023-01-15T10:04:15;99498.72;;;7.44;92.03
12868;BME280;33517;49.866;8.320;2023-01-15T10:07:17;99500.88;;;7.40;90.31
12868;BME280;33517;49.866;8.320;2023-01-15T10:10:18;99500.06;;;7.32;89.99
12868;BME280;33517;49.866;8.320;2023-01-15T10:13:18;99509.03;;;7.29;89.17
12868;BME280;33517;49.866;8.320;2023-01-15T10:16:17;99515.59;;;7.25;89.95
12868;BME280;33517;49.866;8.320;2023-01-15T10:19:11;99518.72;;;7.13;88.69
12868;BME280;33517;49.866;8.320;2023-01-15T10:22:06;99519.56;;;7.13;87.86
12868;BME280;33517;49.866;8.320;2023-01-15T10:25:04;99519.38;;;7.07;87.58
12868;BME280;33517;49.866;8.320;2023-01-15T10:28:07;99522.81;;;6.99;87.94
12868;BME280;33517;49.866;8.320;2023-01-15T10:31:08;99529.19;;;7.05;87.05
12868;BME280;33517;49.866;8.320;2023-01-15T10:34:22;99528.88;;;7.00;86.13
12868;BME280;33517;49.866;8.320;2023-01-15T10:37:22;99529.69;;;7.00;87.04
12868;BME280;33517;49.866;8.320;2023-01-15T10:40:33;99536.72;;;7.08;87.10
12868;BME280;33517;49.866;8.320;2023-01-15T10:43:37;99526.25;;;7.00;86.79
12868;BME280;33517;49.866;8.320;2023-01-15T10:46:35;99513.00;;;6.93;87.05
12868;BME280;33517;49.866;8.320;2023-01-15T10:49:30;99506.97;;;6.85;86.66
12868;BME280;33517;49.866;8.320;2023-01-15T10:52:25;99493.72;;;6.78;86.35
12868;BME280;33517;49.866;8.320;2023-01-15T10:55:22;99492.41;;;6.82;86.18
12868;BME280;33517;49.866;8.320;2023-01-15T10:58:23;99483.94;;;6.88;85.53
12868;BME280;33517;49.866;8.320;2023-01-15T11:01:22;99482.94;;;6.89;84.96
12868;BME280;33517;49.866;8.320;2023-01-15T11:04:17;99486.84;;;6.85;85.62
12868;BME280;33517;49.866;8.320;2023-01-15T11:07:10;99481.97;;;6.82;83.99
12868;BME280;33517;49.866;8.320;2023-01-15T11:10:06;99485.88;;;6.78;83.13
12868;BME280;33517;49.866;8.320;2023-01-15T11:13:01;99488.03;;;6.83;83.91
12868;BME280;33517;49.866;8.320;2023-01-15T11:16:23;99494.56;;;6.87;83.88
12868;BME280;33517;49.866;8.320;2023-01-15T11:19:34;99496.03;;;6.81;82.48
12868;BME280;33517;49.866;8.320;2023-01-15T11:22:29;99492.75;;;6.71;83.03
12868;BME280;33517;49.866;8.320;2023-01-15T11:25:27;99497.16;;;6.71;83.15
12868;BME280;33517;49.866;8.320;2023-01-15T11:28:29;99497.47;;;6.76;83.48
12868;BME280;33517;49.866;8.320;2023-01-15T11:31:34;99497.31;;;6.69;82.43
12868;BME280;33517;49.866;8.320;2023-01-15T11:34:26;99503.03;;;6.65;82.23
12868;BME280;33517;49.866;8.320;2023-01-15T11:37:18;99492.09;;;6.77;81.92
12868;BME280;33517;49.866;8.320;2023-01-15T11:40:15;99492.75;;;7.11;80.23
12868;BME280;33517;49.866;8.320;2023-01-15T11:43:19;99483.84;;;8.53;77.09
12868;BME280;33517;49.866;8.320;2023-01-15T11:46:31;99493.47;;;9.78;75.00
12868;BME280;33517;49.866;8.320;2023-01-15T11:49:49;99485.09;;;10.33;71.74
12868;BME280;33517;49.866;8.320;2023-01-15T11:52:59;99484.59;;;10.86;69.97
12868;BME280;33517;49.866;8.320;2023-01-15T11:55:53;99472.53;;;11.26;69.64
12868;BME280;33517;49.866;8.320;2023-01-15T11:58:48;99472.75;;;11.25;68.06
12868;BME280;33517;49.866;8.320;2023-01-15T12:01:48;99473.88;;;10.88;65.25
12868;BME280;33517;49.866;8.320;2023-01-15T12:04:48;99474.50;;;10.90;65.37
12868;BME280;33517;49.866;8.320;2023-01-15T12:07:43;99474.28;;;10.91;66.35
12868;BME280;33517;49.866;8.320;2023-01-15T12:10:43;99482.50;;;11.03;66.72
12868;BME280;33517;49.866;8.320;2023-01-15T12:14:07;99477.41;;;11.29;64.20
12868;BME280;33517;49.866;8.320;2023-01-15T12:17:18;99469.78;;;11.68;64.66
12868;BME280;33517;49.866;8.320;2023-01-15T12:20:22;99460.94;;;11.82;63.08
12868;BME280;33517;49.866;8.320;2023-01-15T12:23:36;99459.69;;;12.39;60.90
12868;BME280;33517;49.866;8.320;2023-01-15T12:26:38;99467.41;;;12.34;61.04
12868;BME280;33517;49.866;8.320;2023-01-15T12:29:37;99456.91;;;12.53;60.91
12868;BME280;33517;49.866;8.320;2023-01-15T12:32:38;99462.91;;;12.21;58.61
12868;BME280;33517;49.866;8.320;2023-01-15T12:35:39;99468.47;;;12.65;59.68
12868;BME280;33517;49.866;8.320;2023-01-15T12:38:43;99439.81;;;12.30;57.14
12868;BME280;33517;49.866;8.320;2023-01-15T12:41:38;99439.44;;;12.59;59.50
12868;BME280;33517;49.866;8.320;2023-01-15T12:44:51;99424.72;;;13.61;58.08
12868;BME280;33517;49.866;8.320;2023-01-15T12:48:01;99431.78;;;13.80;54.72
12868;BME280;33517;49.866;8.320;2023-01-15T12:50:59;99436.00;;;13.94;55.11
12868;BME280;33517;49.866;8.320;2023-01-15T12:54:02;99441.13;;;14.33;54.10
12868;BME280;33517;49.866;8.320;2023-01-15T12:57:03;99445.06;;;14.18;52.10
12868;BME280;33517;49.866;8.320;2023-01-15T13:00:03;99462.53;;;13.68;52.65
12868;BME280;33517;49.866;8.320;2023-01-15T13:03:15;99478.38;;;14.32;52.35
12868;BME280;33517;49.866;8.320;2023-01-15T13:06:11;99478.44;;;13.55;53.86
12868;BME280;33517;49.866;8.320;2023-01-15T13:09:16;99486.22;;;14.51;52.31
12868;BME280;33517;49.866;8.320;2023-01-15T13:12:14;99488.63;;;14.59;52.63
12868;BME280;33517;49.866;8.320;2023-01-15T13:15:12;99496.16;;;14.05;51.33
12868;BME280;33517;49.866;8.320;2023-01-15T13:18:11;99490.63;;;14.64;52.79
12868;BME280;33517;49.866;8.320;2023-01-15T13:21:13;99497.41;;;15.95;48.97
12868;BME280;33517;49.866;8.320;2023-01-15T13:24:18;99487.53;;;16.20;46.56
12868;BME280;33517;49.866;8.320;2023-01-15T13:27:26;99504.84;;;15.50;48.79
12868;BME280;33517;49.866;8.320;2023-01-15T13:30:44;99507.22;;;14.46;49.10
12868;BME280;33517;49.866;8.320;2023-01-15T13:33:47;99501.00;;;14.15;51.63
12868;BME280;33517;49.866;8.320;2023-01-15T13:36:44;99512.00;;;14.18;50.56
12868;BME280;33517;49.866;8.320;2023-01-15T13:39:39;99494.84;;;14.40;49.35
12868;BME280;33517;49.866;8.320;2023-01-15T13:42:35;99511.00;;;14.95;49.38
12868;BME280;33517;49.866;8.320;2023-01-15T13:45:34;99515.94;;;14.85;47.16
12868;BME280;33517;49.866;8.320;2023-01-15T13:48:30;99513.31;;;13.89;48.89
12868;BME280;33517;49.866;8.320;2023-01-15T13:51:32;99505.59;;;13.88;49.74
12868;BME280;33517;49.866;8.320;2023-01-15T13:54:39;99510.47;;;12.54;50.41
12868;BME280;33517;49.866;8.320;2023-01-15T13:57:35;99523.44;;;11.61;53.76
12868;BME280;33517;49.866;8.320;2023-01-15T14:00:31;99519.03;;;10.91;55.15
12868;BME280;33517;49.866;8.320;2023-01-15T14:03:27;99515.78;;;10.68;56.87
12868;BME280;33517;49.866;8.320;2023-01-15T14:06:36;99506.75;;;10.35;57.96
12868;BME280;33517;49.866;8.320;2023-01-15T14:09:30;99515.28;;;10.08;58.90
12868;BME280;33517;49.866;8.320;2023-01-15T14:12:36;99505.69;;;10.00;60.11
12868;BME280;33517;49.866;8.320;2023-01-15T14:15:40;99504.88;;;10.00;60.14
12868;BME280;33517;49.866;8.320;2023-01-15T14:19:02;99504.78;;;9.93;60.79
12868;BME280;33517;49.866;8.320;2023-01-15T14:22:13;99505.97;;;9.91;60.68
12868;BME280;33517;49.866;8.320;2023-01-15T14:28:58;99510.38;;;9.32;61.59
12868;BME280;33517;49.866;8.320;2023-01-15T14:32:01;99522.16;;;9.36;62.62
12868;BME280;33517;49.866;8.320;2023-01-15T14:34:57;99518.38;;;9.39;62.83
12868;BME280;33517;49.866;8.320;2023-01-15T14:37:55;99521.53;;;9.34;61.86
12868;BME280;33517;49.866;8.320;2023-01-15T14:40:57;99521.69;;;9.18;63.81
12868;BME280;33517;49.866;8.320;2023-01-15T14:43:56;99515.69;;;9.09;62.90
12868;BME280;33517;49.866;8.320;2023-01-15T14:46:57;99524.88;;;8.91;63.72
12868;BME280;33517;49.866;8.320;2023-01-15T14:50:00;99525.47;;;8.78;64.63
12868;BME280;33517;49.866;8.320;2023-01-15T14:52:59;99529.25;;;8.53;65.18
12868;BME280;33517;49.866;8.320;2023-01-15T14:55:56;99514.97;;;8.25;66.26
12868;BME280;33517;49.866;8.320;2023-01-15T14:58:53;99520.06;;;8.18;66.49
12868;BME280;33517;49.866;8.320;2023-01-15T15:01:50;99537.13;;;8.06;67.18
12868;BME280;33517;49.866;8.320;2023-01-15T15:04:44;99539.31;;;7.95;68.33
12868;BME280;33517;49.866;8.320;2023-01-15T15:07:41;99536.75;;;7.79;68.58
12868;BME280;33517;49.866;8.320;2023-01-15T15:10:39;99544.00;;;7.61;69.88
12868;BME280;33517;49.866;8.320;2023-01-15T15:13:35;99540.91;;;7.49;69.66
12868;BME280;33517;49.866;8.320;2023-01-15T15:16:30;99552.22;;;7.41;69.76
12868;BME280;33517;49.866;8.320;2023-01-15T15:19:26;99557.63;;;7.40;70.93
12868;BME280;33517;49.866;8.320;2023-01-15T15:22:21;99570.53;;;7.41;71.12
12868;BME280;33517;49.866;8.320;2023-01-15T15:25:20;99593.78;;;7.28;71.56
12868;BME280;33517;49.866;8.320;2023-01-15T15:28:14;99603.75;;;7.25;72.35
12868;BME280;33517;49.866;8.320;2023-01-15T15:31:08;99613.91;;;7.36;73.06
12868;BME280;33517;49.866;8.320;2023-01-15T15:34:01;99619.44;;;7.41;72.83
12868;BME280;33517;49.866;8.320;2023-01-15T15:36:53;99621.41;;;7.47;73.43
12868;BME280;33517;49.866;8.320;2023-01-15T15:39:50;99616.50;;;7.52;73.53
12868;BME280;33517;49.866;8.320;2023-01-15T15:42:49;99614.53;;;7.54;72.32